Time;durP1;ratioP1;P1;durP2;ratioP2;P2;SDS_P1;SDS_P2;PMS_P1;PMS_P2;Temp;Humidity;BMP_temperature;BMP_pressure;BME280_temperature;BME280_humidity;BME280_pressure;Samples;Min_cycle;Max_cycle;Signal;HPM_P1;HPM_P2
2021/01/18 00:04:51;;;;;;;63.15;21.75;;;;;;;-11.01;75.60;99223.60;250147;1148;23023;-77
2021/01/18 00:09:53;;;;;;;57.45;20.90;;;;;;;-11.00;75.76;99222.66;249969;1148;25996;-77
2021/01/18 00:14:56;;;;;;;73.10;24.20;;;;;;;-10.85;76.16;99221.27;249997;1148;23241;-74
2021/01/18 00:19:58;;;;;;;73.50;24.20;;;;;;;-10.75;75.82;99223.03;249769;1149;22971;-75
2021/01/18 00:25:00;;;;;;;69.13;22.97;;;;;;;-10.71;76.12;99214.02;250039;1151;23143;-75
2021/01/18 00:30:14;;;;;;;74.43;24.30;;;;;;;-10.71;75.53;99222.59;249964;1148;22928;-75
2021/01/18 00:35:19;;;;;;;71.30;23.67;;;;;;;-10.69;75.52;99215.52;250008;1155;23458;-76
2021/01/18 00:40:24;;;;;;;53.50;19.05;;;;;;;-10.76;74.55;99218.80;249939;1149;22974;-74
2021/01/18 00:45:25;;;;;;;60.40;23.03;;;;;;;-10.77;75.35;99211.98;249941;1155;22970;-76
2021/01/18 00:50:30;;;;;;;68.20;24.07;;;;;;;-10.78;75.50;99226.70;250020;1148;22965;-77
2021/01/18 00:55:32;;;;;;;67.33;23.00;;;;;;;-10.74;76.08;99230.66;250091;1147;23055;-77
2021/01/18 01:00:52;;;;;;;61.07;20.67;;;;;;;-10.70;75.20;99233.76;249820;1148;22974;-76
2021/01/18 01:05:55;;;;;;;70.10;24.17;;;;;;;-10.80;74.52;99231.19;250083;1148;25918;-76
2021/01/18 01:10:57;;;;;;;60.33;22.10;;;;;;;-10.77;74.97;99235.28;249804;1150;23018;-76
2021/01/18 01:15:59;;;;;;;57.83;21.43;;;;;;;-10.85;74.73;99223.86;250226;1155;23071;-76
2021/01/18 01:21:02;;;;;;;55.63;20.57;;;;;;;-10.88;75.14;99218.96;249831;1151;22971;-76
2021/01/18 01:26:04;;;;;;;40.30;13.75;;;;;;;-10.96;75.45;99220.62;250255;1153;22994;-75
2021/01/18 01:31:07;;;;;;;57.77;20.33;;;;;;;-10.97;75.67;99217.20;250131;1150;23046;-77
2021/01/18 01:36:09;;;;;;;55.37;20.53;;;;;;;-10.83;75.65;99210.77;249878;1148;22972;-76
2021/01/18 01:41:12;;;;;;;56.10;20.63;;;;;;;-10.69;75.92;99212.94;250131;1148;23043;-76
2021/01/18 01:46:15;;;;;;;57.33;20.43;;;;;;;-10.67;75.98;99207.61;250319;1148;22935;-76
2021/01/18 01:51:18;;;;;;;59.63;20.13;;;;;;;-10.73;74.94;99203.81;250449;1148;22898;-75
2021/01/18 01:56:22;;;;;;;37.93;13.63;;;;;;;-10.92;75.17;99206.45;250228;1147;26401;-77
2021/01/18 02:01:24;;;;;;;49.77;17.63;;;;;;;-11.14;74.19;99212.74;250170;1148;22724;-75
2021/01/18 02:06:26;;;;;;;34.20;12.37;;;;;;;-11.23;74.95;99217.78;249860;1155;22987;-81
2021/01/18 02:11:28;;;;;;;49.60;17.47;;;;;;;-11.20;75.13;99214.92;250067;1148;22985;-77
2021/01/18 02:16:55;;;;;;;57.97;19.60;;;;;;;-11.07;76.27;99206.05;249842;1155;23079;-74
2021/01/18 02:22:09;;;;;;;49.87;17.33;;;;;;;-10.98;75.81;99197.47;249874;1148;22938;-76
2021/01/18 02:27:21;;;;;;;36.10;13.90;;;;;;;-11.08;75.80;99191.48;250045;1148;22994;-75
2021/01/18 02:33:20;;;;;;;41.40;16.63;;;;;;;-11.18;75.58;99201.84;250039;1148;22987;-77
2021/01/18 02:38:31;;;;;;;42.50;15.00;;;;;;;-11.20;75.77;99201.98;249741;1151;23080;-76
2021/01/18 02:43:41;;;;;;;62.53;22.63;;;;;;;-11.33;74.96;99198.88;250012;1148;22971;-76
2021/01/18 02:48:44;;;;;;;52.62;20.65;;;;;;;-11.49;74.76;99214.11;250063;1148;23126;-76
2021/01/18 02:53:57;;;;;;;65.53;24.43;;;;;;;-11.70;75.47;99205.52;250084;1148;24427;-76
2021/01/18 02:59:01;;;;;;;72.30;25.23;;;;;;;-11.89;74.91;99203.73;250088;1155;23054;-75
2021/01/18 03:04:09;;;;;;;74.13;25.60;;;;;;;-12.10;75.75;99196.11;250122;1148;23100;-76
2021/01/18 03:09:19;;;;;;;76.13;27.27;;;;;;;-12.36;74.95;99189.79;250138;1148;23402;-76
2021/01/18 03:14:28;;;;;;;75.40;26.97;;;;;;;-12.58;75.90;99197.56;249886;1148;22945;-75
2021/01/18 03:19:40;;;;;;;69.00;26.80;;;;;;;-12.65;76.48;99201.61;249913;1148;22934;-76
2021/01/18 03:24:42;;;;;;;71.65;27.60;;;;;;;-12.77;75.75;99202.63;250033;1153;22942;-76
2021/01/18 03:29:44;;;;;;;75.83;28.20;;;;;;;-12.84;76.54;99197.19;249796;1148;22920;-75
2021/01/18 03:34:46;;;;;;;71.47;26.90;;;;;;;-12.96;75.51;99187.88;249885;1155;22951;-76
2021/01/18 03:39:48;;;;;;;75.67;25.27;;;;;;;-13.15;75.70;99185.99;249805;1148;26449;-76
2021/01/18 03:44:50;;;;;;;74.63;27.77;;;;;;;-13.35;75.43;99185.89;250036;1148;22906;-76
2021/01/18 03:49:52;;;;;;;66.60;23.93;;;;;;;-13.48;75.95;99177.54;249892;1155;22974;-77
2021/01/18 03:54:54;;;;;;;83.17;28.03;;;;;;;-13.60;76.49;99184.48;250039;1148;23427;-76
2021/01/18 03:59:56;;;;;;;86.50;29.77;;;;;;;-13.58;76.48;99174.05;250152;1148;22923;-76
2021/01/18 08:37:18;;;;;;;157.53;53.87;;;;;;;-11.57;75.47;99197.52;250539;1134;63230;-76
2021/01/18 08:42:29;;;;;;;147.60;51.90;;;;;;;-11.13;75.16;99201.45;250312;1145;46607;-76
2021/01/18 08:47:41;;;;;;;166.57;56.83;;;;;;;-10.61;74.76;99195.88;250109;1135;87239;-75
2021/01/18 08:52:44;;;;;;;182.20;58.20;;;;;;;-9.93;76.11;99186.91;251049;1151;23633;-74
2021/01/18 08:57:52;;;;;;;167.17;59.20;;;;;;;-9.24;75.50;99198.41;251343;1147;23150;-74
2021/01/18 09:02:56;;;;;;;170.13;60.53;;;;;;;-8.66;74.87;99201.39;251837;1148;23183;-72
2021/01/18 09:08:02;;;;;;;186.17;68.30;;;;;;;-8.36;74.65;99201.86;251141;1148;22938;-75
2021/01/18 09:13:07;;;;;;;168.63;58.97;;;;;;;-8.45;70.60;99201.86;256815;1139;36027;-75
2021/01/18 09:18:10;;;;;;;196.53;66.20;;;;;;;-8.67;71.63;99200.59;256824;1147;22686;-75
2021/01/18 09:23:14;;;;;;;158.85;59.00;;;;;;;-8.54;71.81;99197.58;253246;1147;23557;-75
2021/01/18 09:28:30;;;;;;;172.50;55.30;;;;;;;-8.38;72.57;99203.78;251149;1147;23081;-75
2021/01/18 09:33:34;;;;;;;167.20;63.70;;;;;;;-8.15;71.85;99194.47;251068;1147;22906;-73
2021/01/18 09:38:38;;;;;;;232.10;82.30;;;;;;;-7.64;73.53;99176.24;251237;1145;22946;-76
2021/01/18 09:43:42;;;;;;;204.50;76.33;;;;;;;-7.07;72.96;99180.63;253157;1147;24383;-75
2021/01/18 09:48:50;;;;;;;180.27;69.23;;;;;;;-6.75;72.03;99171.13;250977;1148;23736;-76
2021/01/18 09:53:59;;;;;;;206.93;74.07;;;;;;;-6.61;70.68;99169.64;250554;1139;31702;-74
2021/01/18 09:59:07;;;;;;;187.30;68.80;;;;;;;-6.40;71.21;99158.65;250890;1148;22976;-75
2021/01/18 10:04:20;;;;;;;195.50;78.53;;;;;;;-6.00;72.11;99160.42;250687;1148;22983;-73
2021/01/18 10:09:24;;;;;;;184.37;70.60;;;;;;;-5.72;69.33;99163.32;250964;1148;22951;-75
2021/01/18 10:14:31;;;;;;;202.30;81.03;;;;;;;-5.68;70.23;99162.83;251894;1146;24529;-75
2021/01/18 10:19:35;;;;;;;190.73;74.47;;;;;;;-5.59;70.66;99160.16;251101;1148;24287;-73
2021/01/18 10:24:37;;;;;;;157.00;63.40;;;;;;;-5.06;70.94;99158.42;251024;1148;23078;-75
2021/01/18 10:29:42;;;;;;;152.57;59.57;;;;;;;-4.74;70.14;99156.48;250991;1148;23349;-76
2021/01/18 10:34:44;;;;;;;151.90;58.73;;;;;;;-4.74;68.42;99153.04;250822;1146;22922;-76
2021/01/18 10:40:03;;;;;;;146.63;57.77;;;;;;;-5.05;68.48;99152.22;250818;1147;22986;-74
2021/01/18 10:45:06;;;;;;;;;;;;;;;-5.11;69.06;99154.72;250716;1148;22910;-75
2021/01/18 10:50:09;;;;;;;174.90;66.63;;;;;;;-5.08;69.48;99144.70;251107;1147;25026;-73
2021/01/18 10:55:13;;;;;;;158.43;59.47;;;;;;;-4.99;69.26;99143.65;250903;1148;22967;-72
2021/01/18 11:00:25;;;;;;;155.03;61.17;;;;;;;-4.77;70.20;99137.72;251233;1148;22969;-73
2021/01/18 11:05:29;;;;;;;140.93;55.97;;;;;;;-4.43;69.25;99137.19;251166;1147;26960;-75
2021/01/18 11:10:40;;;;;;;127.17;53.63;;;;;;;-4.45;68.79;99133.13;251463;1148;22964;-77
2021/01/18 11:15:58;;;;;;;148.27;60.20;;;;;;;-4.58;68.22;99128.53;251402;1148;22927;-76
2021/01/18 11:21:01;;;;;;;135.03;55.97;;;;;;;-4.44;68.92;99124.29;251151;1148;23158;-77
2021/01/18 11:26:05;;;;;;;145.53;56.43;;;;;;;-4.26;69.93;99118.67;255536;1147;23944;-77
2021/01/18 11:31:08;;;;;;;124.43;49.13;;;;;;;-4.01;69.28;99101.64;253338;1147;24806;-77
2021/01/18 11:36:11;;;;;;;147.10;57.93;;;;;;;-4.11;68.55;99095.91;251008;1148;22981;-77
2021/01/18 11:41:13;;;;;;;136.73;54.23;;;;;;;-3.97;69.07;99092.42;250976;1148;22991;-76
2021/01/18 11:46:17;;;;;;;144.25;58.35;;;;;;;-4.00;68.68;99092.80;250922;1146;22916;-76
2021/01/18 11:51:19;;;;;;;129.87;53.20;;;;;;;-3.99;68.72;99093.59;250477;1148;23016;-76
2021/01/18 11:56:29;;;;;;;141.97;54.33;;;;;;;-3.80;69.85;99084.33;250594;1148;22928;-77
2021/01/18 12:01:31;;;;;;;142.17;56.23;;;;;;;-3.52;70.26;99094.05;251594;1147;26418;-73
2021/01/18 12:06:39;;;;;;;117.47;48.30;;;;;;;-3.36;69.16;99082.47;251461;1148;22950;-71
2021/01/18 12:11:41;;;;;;;99.53;39.00;;;;;;;-3.32;68.04;99074.03;250334;1148;23233;-71
2021/01/18 12:16:44;;;;;;;109.93;45.67;;;;;;;-3.64;67.71;99075.39;250578;1148;25985;-72
2021/01/18 12:21:50;;;;;;;99.43;38.60;;;;;;;-3.96;67.31;99073.11;250732;1148;24235;-75
2021/01/18 12:26:53;;;;;;;95.37;39.80;;;;;;;-4.18;67.83;99085.36;252134;1148;22941;-75
2021/01/18 12:31:56;;;;;;;92.93;37.10;;;;;;;-4.37;67.35;99067.63;253956;1148;22975;-72
2021/01/18 12:36:59;;;;;;;87.13;36.20;;;;;;;-4.40;68.26;99068.81;250677;1148;22901;-71
2021/01/18 12:42:06;;;;;;;98.93;41.07;;;;;;;-4.08;69.87;99055.48;250984;1148;23031;-71
2021/01/18 12:47:09;;;;;;;80.10;35.67;;;;;;;-3.90;68.76;99057.64;250793;1147;22973;-72
2021/01/18 12:52:12;;;;;;;74.03;32.20;;;;;;;-3.88;68.75;99053.84;251487;1147;22956;-73
2021/01/18 12:57:14;;;;;;;90.27;35.90;;;;;;;-3.97;67.83;99052.36;250695;1148;23178;-73
2021/01/18 13:02:16;;;;;;;71.83;31.60;;;;;;;-4.12;68.85;99065.48;250553;1148;23358;-73
2021/01/18 13:07:21;;;;;;;73.37;31.10;;;;;;;-4.07;68.77;99063.14;251310;1145;23338;-74
2021/01/18 13:12:23;;;;;;;66.27;28.53;;;;;;;-4.17;68.47;99057.38;250577;1148;23428;-74
2021/01/18 13:17:26;;;;;;;78.50;32.40;;;;;;;-4.31;68.52;99053.81;250824;1147;22922;-74
2021/01/18 13:22:29;;;;;;;81.97;31.43;;;;;;;-4.45;68.57;99050.23;251467;1148;23098;-74
2021/01/18 13:27:31;;;;;;;71.40;30.27;;;;;;;-4.69;68.33;99036.48;251030;1148;22959;-73
2021/01/18 13:32:33;;;;;;;65.33;28.93;;;;;;;-4.79;69.34;99032.55;250817;1148;22951;-74
2021/01/18 13:37:36;;;;;;;79.43;31.40;;;;;;;-4.78;69.38;99041.98;250569;1148;23103;-73
2021/01/18 13:42:38;;;;;;;65.10;29.27;;;;;;;-4.88;69.06;99034.43;250775;1148;23329;-74
2021/01/18 13:47:42;;;;;;;75.50;30.80;;;;;;;-5.09;69.05;99037.77;250789;1148;24589;-74
2021/01/18 13:52:48;;;;;;;87.30;33.63;;;;;;;-5.53;68.89;99039.36;251548;1147;23094;-73
2021/01/18 13:57:56;;;;;;;94.95;36.60;;;;;;;-5.84;69.53;99040.28;250728;1147;22923;-73
2021/01/18 14:02:59;;;;;;;64.70;29.50;;;;;;;-5.97;69.60;99046.09;250519;1148;23391;-73
2021/01/18 14:08:01;;;;;;;59.00;24.60;;;;;;;-6.11;70.55;99041.64;250904;1148;22938;-73
2021/01/18 14:13:07;;;;;;;60.03;25.83;;;;;;;-6.20;70.01;99046.94;251237;1148;22949;-74
2021/01/18 14:18:09;;;;;;;67.00;28.17;;;;;;;-6.27;70.96;99059.02;250684;1148;22902;-73
2021/01/18 14:23:12;;;;;;;63.93;27.13;;;;;;;-6.39;70.48;99050.78;251178;1148;22914;-76
2021/01/18 14:28:14;;;;;;;71.97;25.90;;;;;;;-6.51;70.58;99046.13;250373;1148;22907;-72
2021/01/18 14:33:16;;;;;;;66.10;26.40;;;;;;;-6.61;70.74;99038.53;250414;1148;23401;-75
2021/01/18 14:38:19;;;;;;;72.00;27.43;;;;;;;-6.64;70.97;99031.86;250533;1148;22944;-73
2021/01/18 14:43:20;;;;;;;79.53;28.53;;;;;;;-6.59;71.49;99042.59;250572;1148;23090;-75
2021/01/18 14:48:23;;;;;;;70.97;29.83;;;;;;;-6.70;71.39;99037.77;251112;1148;22941;-74
2021/01/18 14:53:25;;;;;;;72.77;28.83;;;;;;;-6.58;71.67;99032.97;250749;1148;25906;-74
2021/01/18 14:58:27;;;;;;;64.67;25.23;;;;;;;-6.39;72.73;99026.52;250805;1148;22901;-75
2021/01/18 15:03:29;;;;;;;67.47;26.33;;;;;;;-6.24;72.64;99031.78;251538;1146;22963;-74
2021/01/18 15:08:31;;;;;;;63.27;26.80;;;;;;;-6.18;72.55;99023.28;251117;1150;26117;-75
2021/01/18 15:13:33;;;;;;;73.40;27.13;;;;;;;-6.15;72.40;99016.92;250559;1148;22939;-75
2021/01/18 15:18:36;;;;;;;92.35;32.50;;;;;;;-6.17;72.42;99011.84;250884;1148;22948;-74
2021/01/18 15:23:38;;;;;;;93.80;34.37;;;;;;;-6.15;72.58;99016.92;250253;1146;23103;-74
2021/01/18 15:28:40;;;;;;;97.83;35.77;;;;;;;-6.20;72.99;99017.42;250421;1149;23035;-75
2021/01/18 15:33:43;;;;;;;94.87;40.97;;;;;;;-6.23;72.80;99018.57;250373;1148;22944;-74
2021/01/18 15:38:47;;;;;;;114.90;42.83;;;;;;;-6.32;72.37;99011.80;250961;1148;22918;-75
2021/01/18 15:43:51;;;;;;;154.23;51.90;;;;;;;-6.48;72.07;99007.48;250854;1148;23044;-75
2021/01/18 15:48:53;;;;;;;444.73;122.27;;;;;;;-6.48;72.52;98997.06;250573;1148;22904;-74
2021/01/18 15:53:55;;;;;;;140.93;44.40;;;;;;;-6.49;72.75;99002.45;250386;1148;23613;-75
2021/01/18 15:59:05;;;;;;;95.87;36.17;;;;;;;-6.68;72.21;99008.92;250316;1148;22976;-76
2021/01/18 16:04:09;;;;;;;114.07;39.87;;;;;;;-6.86;72.72;98999.55;250841;1148;22927;-74
2021/01/18 16:09:13;;;;;;;105.73;37.10;;;;;;;-6.91;72.83;98992.25;250205;1148;22951;-74
2021/01/18 16:14:15;;;;;;;83.50;31.40;;;;;;;-6.93;73.51;98994.20;250627;1148;25028;-75
2021/01/18 16:19:17;;;;;;;95.50;35.43;;;;;;;-6.97;73.87;98995.52;250949;1148;22929;-73
2021/01/18 16:24:19;;;;;;;108.27;36.43;;;;;;;-7.05;73.71;99001.59;250287;1148;22939;-74
2021/01/18 16:29:22;;;;;;;87.67;31.13;;;;;;;-7.09;74.18;98991.69;250286;1148;22935;-73
2021/01/18 16:34:28;;;;;;;108.37;38.17;;;;;;;-7.11;73.92;99002.24;250391;1148;22929;-75
2021/01/18 16:39:32;;;;;;;113.60;41.30;;;;;;;-7.10;74.38;99003.08;251192;1148;22967;-75
2021/01/18 16:44:35;;;;;;;109.15;37.40;;;;;;;-7.09;74.56;98997.70;250284;1148;27220;-73
2021/01/18 16:49:37;;;;;;;121.90;43.80;;;;;;;-7.03;74.46;98988.39;250220;1148;22948;-74
2021/01/18 16:54:39;;;;;;;109.63;39.67;;;;;;;-6.82;75.06;98993.02;250207;1148;22941;-74
2021/01/18 16:59:41;;;;;;;87.23;34.57;;;;;;;-6.76;74.22;99001.95;250475;1148;22915;-75
2021/01/18 17:04:43;;;;;;;94.75;36.40;;;;;;;-6.83;74.15;99001.81;250277;1148;22958;-74
2021/01/18 17:09:46;;;;;;;89.03;32.50;;;;;;;-6.87;74.13;99003.13;250269;1148;26404;-74
2021/01/18 17:14:48;;;;;;;94.40;33.07;;;;;;;-6.91;74.76;98997.47;250166;1148;22976;-75
2021/01/18 17:19:50;;;;;;;90.30;35.40;;;;;;;-6.88;74.51;99001.53;250134;1148;22977;-75
2021/01/18 17:24:52;;;;;;;90.80;32.30;;;;;;;-6.85;75.21;99000.35;250242;1147;22967;-73
2021/01/18 17:29:55;;;;;;;113.17;41.10;;;;;;;-6.81;75.17;98997.25;250491;1148;22851;-74
2021/01/18 17:34:57;;;;;;;101.73;36.70;;;;;;;-6.79;75.43;98995.28;250353;1148;23396;-74
2021/01/18 17:39:59;;;;;;;94.83;34.27;;;;;;;-6.81;75.03;99001.63;250720;1148;23234;-75
2021/01/18 17:45:01;;;;;;;91.53;35.43;;;;;;;-6.77;75.09;99005.52;250344;1148;25897;-74
2021/01/18 17:50:04;;;;;;;96.60;34.20;;;;;;;-6.69;75.13;98997.67;250706;1148;25995;-75
2021/01/18 17:55:07;;;;;;;73.27;28.17;;;;;;;-6.60;75.17;98988.03;250274;1148;24255;-75
2021/01/18 18:00:10;;;;;;;65.83;26.07;;;;;;;-6.55;75.67;98990.92;250850;1149;22977;-74
2021/01/18 18:05:14;;;;;;;61.97;25.23;;;;;;;-6.48;76.71;98994.45;251052;1148;23072;-75
2021/01/18 18:10:15;;;;;;;65.10;26.67;;;;;;;-6.45;76.69;98988.92;250379;1148;22998;-74
2021/01/18 18:15:18;;;;;;;53.73;23.60;;;;;;;-6.39;77.04;98977.78;250368;1148;22949;-75
2021/01/18 18:20:20;;;;;;;57.93;24.60;;;;;;;-6.36;76.87;98977.44;250406;1148;23018;-73
2021/01/18 18:25:23;;;;;;;54.45;21.60;;;;;;;-6.33;77.13;98983.30;250396;1148;22952;-73
2021/01/18 18:30:25;;;;;;;79.27;32.40;;;;;;;-6.33;77.06;98976.28;250386;1148;22949;-73
2021/01/18 18:35:27;;;;;;;97.63;38.43;;;;;;;-6.30;77.45;98965.50;250349;1145;23077;-74
2021/01/18 18:40:29;;;;;;;80.43;31.60;;;;;;;-6.24;77.28;98970.03;250344;1150;22945;-74
2021/01/18 18:45:31;;;;;;;78.85;32.20;;;;;;;-6.24;77.06;98977.02;250390;1148;22959;-74
2021/01/18 18:50:34;;;;;;;70.23;28.20;;;;;;;-6.22;77.38;98975.07;250810;1148;23367;-72
2021/01/18 18:55:37;;;;;;;84.37;32.93;;;;;;;-6.21;77.87;98977.50;250319;1148;25961;-73
2021/01/18 19:00:39;;;;;;;91.80;36.05;;;;;;;-6.18;77.41;98981.56;250427;1146;22953;-74
2021/01/18 19:05:42;;;;;;;90.17;34.33;;;;;;;-6.14;78.02;98980.23;250577;1148;22909;-74
2021/01/18 19:10:44;;;;;;;86.70;34.53;;;;;;;-6.12;78.19;98972.22;250430;1147;23283;-74
2021/01/18 19:15:47;;;;;;;98.67;38.47;;;;;;;-6.07;77.77;98969.88;250238;1145;25740;-75
2021/01/18 19:20:49;;;;;;;102.30;37.17;;;;;;;-6.04;78.34;98967.74;250322;1148;22964;-75
2021/01/18 19:25:51;;;;;;;90.63;32.77;;;;;;;-6.02;78.49;98965.76;250374;1148;22891;-74
2021/01/18 19:30:54;;;;;;;91.03;35.30;;;;;;;-6.01;78.22;98956.15;250309;1148;22964;-75
2021/01/18 19:35:55;;;;;;;82.97;34.67;;;;;;;-5.93;79.01;98966.48;250304;1148;22952;-74
2021/01/18 19:40:58;;;;;;;99.57;39.13;;;;;;;-5.86;79.05;98956.96;250181;1148;22950;-74
2021/01/18 19:46:00;;;;;;;104.60;40.57;;;;;;;-5.76;78.37;98964.53;250448;1148;22938;-74
2021/01/18 19:51:05;;;;;;;71.57;30.20;;;;;;;-5.64;79.14;98969.31;250454;1148;22991;-72
2021/01/18 19:56:07;;;;;;;81.27;32.63;;;;;;;-5.61;78.84;98968.95;250880;1148;22974;-73
2021/01/18 20:01:09;;;;;;;71.53;29.20;;;;;;;-5.53;78.93;98966.27;250435;1148;22931;-73
2021/01/18 20:06:12;;;;;;;80.50;30.50;;;;;;;-5.45;79.14;98963.57;250321;1148;22968;-74
2021/01/18 20:11:14;;;;;;;76.40;30.50;;;;;;;-5.38;78.78;98961.05;251101;1148;22952;-74
2021/01/18 20:16:19;;;;;;;89.43;36.40;;;;;;;-5.22;79.48;98957.44;250377;1148;22969;-72
2021/01/18 20:21:27;;;;;;;80.77;31.17;;;;;;;-5.18;79.02;98949.05;250566;1148;24577;-72
2021/01/18 20:26:32;;;;;;;76.97;29.33;;;;;;;-5.18;79.30;98956.08;250413;1148;23042;-73
2021/01/18 20:31:36;;;;;;;62.43;27.67;;;;;;;-5.25;79.37;98944.74;250710;1148;27247;-74
2021/01/18 20:36:38;;;;;;;80.57;32.10;;;;;;;-5.34;80.39;98949.27;251059;1148;22960;-74
2021/01/18 20:41:40;;;;;;;68.90;28.27;;;;;;;-5.38;80.32;98943.58;250418;1146;23017;-73
2021/01/18 20:46:42;;;;;;;79.70;31.50;;;;;;;-5.36;80.67;98946.83;250356;1148;22943;-74
2021/01/18 20:51:50;;;;;;;77.27;32.30;;;;;;;-5.32;80.43;98936.81;250390;1148;22956;-74
2021/01/18 20:56:55;;;;;;;69.73;28.53;;;;;;;-5.21;80.18;98927.72;250474;1148;23096;-73
2021/01/18 21:01:57;;;;;;;80.05;30.40;;;;;;;-5.22;80.47;98924.31;250325;1148;22950;-74
2021/01/18 21:06:59;;;;;;;76.40;30.53;;;;;;;-5.25;81.10;98922.04;250244;1148;23415;-73
2021/01/18 21:12:02;;;;;;;82.20;30.70;;;;;;;-5.26;81.59;98925.66;250318;1148;23503;-74
2021/01/18 21:17:05;;;;;;;68.90;28.40;;;;;;;-5.24;81.28;98926.28;250317;1148;22921;-72
2021/01/18 21:22:08;;;;;;;64.27;24.93;;;;;;;-5.20;81.62;98924.92;250423;1146;22957;-74
2021/01/18 21:27:13;;;;;;;63.47;27.33;;;;;;;-5.15;81.45;98916.53;250313;1148;22964;-73
2021/01/18 21:32:16;;;;;;;57.87;25.73;;;;;;;-5.10;81.16;98903.73;250371;1148;23183;-74
2021/01/18 21:37:19;;;;;;;66.77;28.50;;;;;;;-5.03;81.32;98903.83;250449;1147;23035;-72
2021/01/18 21:42:21;;;;;;;74.10;29.67;;;;;;;-5.00;81.77;98896.41;250408;1146;23022;-74
2021/01/18 21:47:23;;;;;;;78.50;31.43;;;;;;;-4.93;81.17;98893.88;250468;1148;23338;-74
2021/01/18 21:52:26;;;;;;;73.67;30.20;;;;;;;-4.90;81.52;98888.27;250372;1145;22908;-72
2021/01/18 21:57:30;;;;;;;68.37;27.67;;;;;;;-4.87;81.51;98887.09;250437;1146;22967;-71
2021/01/18 22:02:34;;;;;;;68.03;28.53;;;;;;;-4.84;81.70;98884.11;250435;1146;22999;-73
2021/01/18 22:07:36;;;;;;;74.47;29.87;;;;;;;-4.83;81.85;98883.95;250443;1148;22961;-73
2021/01/18 22:12:39;;;;;;;68.70;28.10;;;;;;;-4.76;81.85;98877.97;250368;1147;22994;-74
2021/01/18 22:17:41;;;;;;;73.27;30.07;;;;;;;-4.76;82.19;98870.12;250610;1148;22945;-74
2021/01/18 22:22:43;;;;;;;72.83;31.90;;;;;;;-4.69;82.48;98869.17;250340;1148;22941;-74
2021/01/18 22:27:45;;;;;;;72.07;28.97;;;;;;;-4.64;82.01;98860.79;250479;1150;23002;-73
2021/01/18 22:32:47;;;;;;;74.37;30.53;;;;;;;-4.60;81.95;98866.44;250704;1147;22953;-74
2021/01/18 22:37:49;;;;;;;67.43;26.63;;;;;;;-4.55;82.37;98862.27;250350;1148;22967;-74
2021/01/18 22:42:53;;;;;;;65.13;28.07;;;;;;;-4.54;82.83;98863.89;250551;1148;23329;-74
2021/01/18 22:47:59;;;;;;;61.83;25.17;;;;;;;-4.54;82.76;98855.25;250532;1148;22956;-73
2021/01/18 22:53:01;;;;;;;59.43;25.30;;;;;;;-4.52;82.72;98863.70;250464;1148;22918;-73
2021/01/18 22:58:03;;;;;;;60.47;27.53;;;;;;;-4.51;83.01;98847.81;250454;1148;22971;-73
2021/01/18 23:03:05;;;;;;;65.13;25.83;;;;;;;-4.49;82.53;98840.61;250435;1146;22942;-71
2021/01/18 23:08:07;;;;;;;63.23;23.87;;;;;;;-4.43;83.16;98825.17;250826;1148;22946;-71
2021/01/18 23:13:11;;;;;;;66.23;24.67;;;;;;;-4.41;82.82;98817.92;250337;1148;23421;-71
2021/01/18 23:18:13;;;;;;;53.27;22.27;;;;;;;-4.38;82.72;98839.30;250502;1148;23091;-71
2021/01/18 23:23:16;;;;;;;45.17;19.13;;;;;;;-4.27;82.88;98827.48;250589;1147;25001;-74
2021/01/18 23:28:18;;;;;;;47.30;21.57;;;;;;;-4.21;82.58;98818.89;250332;1148;22970;-73
2021/01/18 23:33:21;;;;;;;48.80;21.03;;;;;;;-4.14;82.55;98821.52;250440;1148;23658;-74
2021/01/18 23:38:23;;;;;;;45.93;19.13;;;;;;;-4.06;82.50;98820.58;250413;1148;22940;-73
2021/01/18 23:43:25;;;;;;;55.00;23.07;;;;;;;-4.02;82.23;98806.11;250726;1148;23100;-74
2021/01/18 23:48:28;;;;;;;52.33;21.77;;;;;;;-4.02;82.61;98803.49;250352;1148;27227;-73
2021/01/18 23:53:30;;;;;;;51.13;22.63;;;;;;;-4.03;82.50;98792.23;250310;1148;24551;-73
2021/01/18 23:58:32;;;;;;;45.55;20.45;;;;;;;-4.05;82.67;98780.33;250375;1148;26514;-75
